Time;durP1;ratioP1;P1;durP2;ratioP2;P2;SDS_P1;SDS_P2;PMS_P1;PMS_P2;Temp;Humidity;BMP_temperature;BMP_pressure;BME280_temperature;BME280_humidity;BME280_pressure;Samples;Min_cycle;Max_cycle;Signal;HPM_P1;HPM_P2
2024/01/18 00:01:33;;;;;;;24.05;4.80;;;23.90;49.60;;;;;;5026076;28;20105;-54
2024/01/18 00:04:02;;;;;;;28.98;4.50;;;23.80;49.70;;;;;;5040760;28;20088;-53
2024/01/18 00:06:49;;;;;;;43.35;5.40;;;23.70;49.70;;;;;;5042689;28;20074;-55
2024/01/18 00:09:16;;;;;;;23.00;4.15;;;23.60;50.20;;;;;;5047179;28;20143;-47
2024/01/18 00:11:42;;;;;;;28.70;4.50;;;23.40;50.10;;;;;;5024509;28;20148;-55
2024/01/18 00:14:09;;;;;;;29.30;5.47;;;23.30;50.50;;;;;;5041569;28;20124;-48
2024/01/18 00:16:37;;;;;;;31.65;5.75;;;23.30;50.60;;;;;;5040028;28;20188;-48
2024/01/18 00:19:03;;;;;;;32.35;4.88;;;23.20;50.60;;;;;;5041478;28;20116;-56
2024/01/18 00:21:30;;;;;;;38.78;5.32;;;23.20;50.80;;;;;;5046006;28;20093;-60
2024/01/18 00:23:57;;;;;;;29.42;5.75;;;23.10;51.10;;;;;;5043431;28;20073;-52
2024/01/18 00:26:24;;;;;;;18.23;5.07;;;23.00;50.70;;;;;;5023000;28;20077;-58
2024/01/18 00:28:50;;;;;;;35.45;6.07;;;23.00;51.50;;;;;;5043706;28;20070;-53
2024/01/18 00:31:17;;;;;;;36.17;6.20;;;23.00;51.30;;;;;;5046242;28;20153;-53
2024/01/18 00:33:43;;;;;;;32.22;5.30;;;22.90;50.50;;;;;;5043789;28;20077;-46
2024/01/18 00:36:11;;;;;;;41.20;5.13;;;22.80;50.60;;;;;;5045755;28;20108;-51
2024/01/18 00:38:37;;;;;;;39.35;6.07;;;22.70;50.60;;;;;;5038493;28;20085;-51
2024/01/18 00:41:04;;;;;;;41.15;5.97;;;22.60;50.60;;;;;;5021508;28;20082;-46
2024/01/18 00:43:31;;;;;;;36.15;5.85;;;22.50;50.80;;;;;;5041922;28;20167;-53
2024/01/18 00:46:04;;;;;;;70.78;19.65;;;22.40;51.00;;;;;;5039462;28;20082;-55
2024/01/18 00:48:31;;;;;;;49.10;6.10;;;22.30;51.50;;;;;;5040686;28;20085;-52
2024/01/18 00:50:58;;;;;;;36.35;5.80;;;22.20;51.90;;;;;;5044453;28;20164;-51
2024/01/18 00:53:25;;;;;;;29.60;6.88;;;22.10;52.50;;;;;;5041983;28;20711;-47
2024/01/18 00:55:52;;;;;;;54.05;6.63;;;21.90;53.10;;;;;;5065899;28;20104;-48
2024/01/18 00:58:18;;;;;;;39.92;5.72;;;21.80;53.50;;;;;;5061034;28;20147;-49
2024/01/18 01:00:45;;;;;;;36.05;6.20;;;21.80;53.80;;;;;;5063076;28;20086;-48
2024/01/18 01:03:11;;;;;;;51.42;6.45;;;21.70;54.20;;;;;;5043398;28;20145;-52
2024/01/18 01:05:38;;;;;;;66.35;7.43;;;21.60;54.50;;;;;;5039940;28;20074;-45
2024/01/18 01:08:04;;;;;;;50.60;6.88;;;21.40;55.10;;;;;;5046749;28;20073;-58
2024/01/18 01:10:31;;;;;;;41.13;6.43;;;21.30;55.10;;;;;;5062626;28;20104;-48
2024/01/18 01:12:58;;;;;;;42.08;5.78;;;21.30;55.40;;;;;;5055220;28;20539;-50
2024/01/18 01:15:24;;;;;;;48.08;5.63;;;21.30;55.80;;;;;;5042524;28;20226;-52
2024/01/18 01:17:51;;;;;;;29.80;6.13;;;21.20;56.20;;;;;;5042755;28;20492;-46
2024/01/18 01:20:17;;;;;;;38.95;6.63;;;21.10;56.60;;;;;;5056897;28;20080;-49
2024/01/18 01:22:44;;;;;;;34.33;6.47;;;20.90;57.50;;;;;;5062293;28;20089;-47
2024/01/18 01:25:10;;;;;;;40.30;7.18;;;20.90;57.90;;;;;;5061262;28;20069;-51
2024/01/18 01:27:37;;;;;;;32.88;6.57;;;20.80;59.30;;;;;;5044210;28;20073;-50
2024/01/18 01:30:04;;;;;;;43.85;7.20;;;20.80;60.00;;;;;;5058074;28;20128;-50
2024/01/18 01:32:30;;;;;;;41.28;6.80;;;20.80;60.60;;;;;;5043562;28;20550;-49
2024/01/18 01:34:57;;;;;;;45.58;7.10;;;20.80;60.80;;;;;;5048660;28;20135;-49
2024/01/18 01:37:26;;;;;;;63.25;8.50;;;20.70;61.10;;;;;;5063385;28;20098;-46
2024/01/18 01:39:53;;;;;;;44.58;8.45;;;20.70;61.60;;;;;;5059974;28;20682;-55
2024/01/18 01:42:20;;;;;;;42.55;8.00;;;20.70;62.20;;;;;;5061682;28;20087;-49
2024/01/18 01:44:47;;;;;;;39.00;6.60;;;20.60;62.90;;;;;;5044013;28;20480;-48
2024/01/18 01:47:13;;;;;;;31.90;6.07;;;20.50;63.70;;;;;;5043593;28;20228;-45
2024/01/18 01:49:40;;;;;;;36.10;5.13;;;20.50;64.10;;;;;;5044557;28;20073;-49
2024/01/18 01:52:07;;;;;;;35.95;5.45;;;20.50;64.60;;;;;;5056904;28;20491;-55
2024/01/18 01:54:33;;;;;;;21.48;4.20;;;20.50;65.00;;;;;;5047122;28;20752;-47
2024/01/18 01:57:03;;;;;;;29.85;4.43;;;20.40;65.50;;;;;;5039194;28;20196;-51
2024/01/18 01:59:32;;;;;;;30.58;4.40;;;20.40;65.80;;;;;;5058722;28;20089;-50
2024/01/18 02:01:58;;;;;;;33.35;4.35;;;20.30;66.20;;;;;;5040261;28;20088;-48
2024/01/18 02:04:27;;;;;;;19.50;4.30;;;20.20;66.60;;;;;;5063107;28;20089;-50
2024/01/18 02:06:59;;;;;;;23.85;4.18;;;20.20;66.80;;;;;;5059802;28;20088;-57
2024/01/18 02:09:26;;;;;;;23.35;4.57;;;20.20;67.00;;;;;;5042101;28;20084;-57
2024/01/18 02:11:53;;;;;;;18.02;4.88;;;20.10;67.10;;;;;;5044266;28;20104;-51
2024/01/18 02:14:21;;;;;;;33.42;4.95;;;20.10;67.10;;;;;;5056988;28;20454;-51
2024/01/18 02:16:48;;;;;;;32.78;5.95;;;20.10;67.20;;;;;;5040244;28;20101;-48
2024/01/18 02:19:16;;;;;;;40.92;6.28;;;20.00;67.40;;;;;;5042695;28;20116;-49
2024/01/18 02:21:43;;;;;;;32.22;7.75;;;20.00;67.60;;;;;;5058638;28;20255;-46
2024/01/18 02:24:34;;;;;;;41.08;8.02;;;20.00;67.80;;;;;;5044052;28;20073;-46
2024/01/18 02:27:01;;;;;;;33.55;7.88;;;20.00;68.20;;;;;;5060952;28;20073;-49
2024/01/18 02:29:27;;;;;;;29.65;7.50;;;19.90;68.50;;;;;;5022192;28;20151;-45
2024/01/18 02:31:56;;;;;;;32.28;8.38;;;19.80;69.00;;;;;;5040394;28;20074;-48
2024/01/18 02:34:23;;;;;;;31.83;7.85;;;19.70;69.30;;;;;;5041771;28;20171;-52
2024/01/18 02:36:50;;;;;;;47.00;8.65;;;19.60;69.70;;;;;;5037716;28;20107;-51
2024/01/18 02:39:17;;;;;;;35.00;8.18;;;19.40;70.30;;;;;;5059105;28;20065;-46
2024/01/18 02:41:43;;;;;;;38.85;8.68;;;19.20;70.90;;;;;;5060464;28;20416;-49
2024/01/18 02:44:11;;;;;;;32.63;8.27;;;19.10;71.90;;;;;;5024922;28;20085;-46
2024/01/18 02:46:39;;;;;;;40.03;9.15;;;19.00;72.30;;;;;;5041426;28;20180;-48
2024/01/18 02:49:06;;;;;;;25.85;7.95;;;18.90;72.70;;;;;;5043718;28;20074;-47
2024/01/18 02:51:33;;;;;;;34.22;9.20;;;18.70;73.10;;;;;;5042658;28;20104;-51
2024/01/18 02:53:59;;;;;;;38.45;9.63;;;18.60;73.40;;;;;;5040811;28;20119;-52
2024/01/18 02:56:26;;;;;;;43.45;11.15;;;18.60;74.10;;;;;;5044425;28;20158;-46
2024/01/18 02:58:52;;;;;;;46.33;11.48;;;18.40;75.10;;;;;;5062354;28;20092;-48
2024/01/18 03:01:19;;;;;;;44.40;12.90;;;18.40;76.30;;;;;;5059847;28;20138;-48
2024/01/18 03:03:45;;;;;;;38.20;10.30;;;18.50;77.60;;;;;;5045283;28;20627;-51
2024/01/18 03:06:13;;;;;;;45.97;10.55;;;18.50;78.40;;;;;;5042624;28;20082;-49
2024/01/18 03:08:39;;;;;;;47.13;12.88;;;18.40;79.00;;;;;;5042379;28;20069;-51
2024/01/18 03:11:07;;;;;;;38.28;11.13;;;18.30;79.30;;;;;;5060758;28;20077;-52
2024/01/18 03:13:33;;;;;;;42.35;10.93;;;18.20;79.40;;;;;;5045853;28;20069;-51
2024/01/18 03:16:00;;;;;;;45.40;11.35;;;18.20;79.80;;;;;;5045388;28;20109;-47
2024/01/18 03:18:26;;;;;;;29.52;9.85;;;18.20;79.90;;;;;;5055790;28;20148;-47
2024/01/18 03:20:55;;;;;;;46.00;10.90;;;18.20;80.30;;;;;;5060067;28;20418;-56
2024/01/18 03:23:21;;;;;;;41.80;10.80;;;18.00;80.60;;;;;;5044019;28;20077;-49
2024/01/18 03:25:48;;;;;;;46.10;9.95;;;18.00;81.30;;;;;;5047218;28;20078;-55
2024/01/18 03:28:14;;;;;;;38.65;8.98;;;17.90;82.00;;;;;;5047885;28;20132;-54
2024/01/18 03:30:42;;;;;;;48.75;9.35;;;17.90;83.30;;;;;;5067371;28;20083;-49
2024/01/18 03:33:09;;;;;;;38.38;8.73;;;17.90;84.60;;;;;;5064031;28;20100;-51
2024/01/18 03:35:37;;;;;;;41.45;9.45;;;18.00;84.90;;;;;;5042897;28;20112;-54
2024/01/18 03:38:04;;;;;;;38.17;8.65;;;18.20;83.50;;;;;;5067624;28;20099;-54
2024/01/18 03:40:30;;;;;;;41.08;7.05;;;18.10;83.20;;;;;;5046833;28;20091;-50
2024/01/18 03:42:57;;;;;;;28.83;5.18;;;18.10;80.90;;;;;;5049487;28;20148;-50
2024/01/18 03:45:23;;;;;;;22.60;5.00;;;18.60;73.40;;;;;;5046227;28;20159;-56
2024/01/18 03:47:50;;;;;;;15.70;5.47;;;19.00;71.70;;;;;;5044275;28;20567;-49
2024/01/18 03:50:17;;;;;;;22.90;5.90;;;19.20;70.90;;;;;;5042484;28;20151;-53
2024/01/18 03:52:44;;;;;;;23.95;6.57;;;19.10;71.30;;;;;;5027965;28;20173;-47
2024/01/18 03:55:14;;;;;;;25.05;6.70;;;19.00;72.40;;;;;;5048213;28;20579;-48
2024/01/18 03:57:42;;;;;;;37.03;8.15;;;18.90;73.10;;;;;;5041891;28;20158;-48
2024/01/18 04:00:09;;;;;;;40.10;14.00;;;18.60;74.10;;;;;;5041495;28;20555;-53
2024/01/18 04:02:37;;;;;;;35.22;12.55;;;18.40;78.20;;;;;;5042001;28;20171;-49
2024/01/18 04:05:05;;;;;;;36.50;12.98;;;18.30;80.40;;;;;;5046997;28;20540;-48
2024/01/18 04:07:32;;;;;;;40.53;14.45;;;18.10;82.50;;;;;;5041406;28;20105;-57
2024/01/18 04:09:58;;;;;;;52.65;14.18;;;18.00;83.60;;;;;;5042713;28;20073;-53
2024/01/18 04:12:26;;;;;;;39.75;14.57;;;17.80;84.10;;;;;;5043777;28;20228;-48
2024/01/18 04:14:52;;;;;;;45.05;15.27;;;17.70;85.40;;;;;;5041436;28;20169;-47
2024/01/18 04:17:20;;;;;;;44.25;15.95;;;17.60;86.20;;;;;;5045070;28;20101;-51
2024/01/18 04:19:46;;;;;;;49.30;15.70;;;17.50;86.90;;;;;;5038965;28;20082;-57
2024/01/18 04:22:13;;;;;;;49.97;16.02;;;17.40;86.60;;;;;;5044023;28;20111;-50
2024/01/18 04:24:40;;;;;;;62.63;17.45;;;17.40;86.80;;;;;;5045226;28;20074;-55
2024/01/18 04:27:06;;;;;;;54.90;14.75;;;17.40;87.00;;;;;;5043445;28;20070;-47
2024/01/18 04:29:34;;;;;;;44.40;15.15;;;17.40;87.20;;;;;;5063909;28;20168;-51
2024/01/18 04:32:04;;;;;;;53.00;17.60;;;17.30;87.20;;;;;;5047590;28;20134;-48
2024/01/18 04:34:31;;;;;;;41.35;16.50;;;17.20;88.00;;;;;;5042793;28;20082;-47
2024/01/18 04:36:57;;;;;;;52.00;16.67;;;17.00;89.00;;;;;;5039450;28;20174;-48
2024/01/18 04:39:24;;;;;;;63.20;18.60;;;17.00;90.50;;;;;;5040674;28;20069;-51
2024/01/18 04:41:50;;;;;;;56.30;16.80;;;17.00;91.40;;;;;;5044490;28;20561;-50
2024/01/18 04:44:17;;;;;;;61.10;16.55;;;16.90;91.30;;;;;;5039827;28;20098;-49
2024/01/18 04:46:43;;;;;;;60.05;16.83;;;16.90;91.70;;;;;;5042857;28;20117;-48
2024/01/18 04:49:10;;;;;;;38.95;16.33;;;16.80;92.10;;;;;;5060412;28;20088;-51
2024/01/18 04:51:37;;;;;;;56.40;18.55;;;16.70;92.60;;;;;;5060385;28;20105;-51
2024/01/18 04:54:04;;;;;;;59.65;17.55;;;16.60;93.00;;;;;;5061933;28;20077;-48
2024/01/18 04:56:31;;;;;;;52.10;19.33;;;16.60;93.20;;;;;;5062938;28;20101;-49
2024/01/18 04:58:58;;;;;;;46.03;17.90;;;16.50;93.60;;;;;;5048981;28;20076;-47
2024/01/18 05:01:24;;;;;;;49.83;17.70;;;16.50;93.90;;;;;;5046192;28;20164;-49
2024/01/18 05:03:51;;;;;;;62.00;19.55;;;16.50;94.10;;;;;;5046257;28;20104;-48
2024/01/18 05:06:18;;;;;;;63.85;20.67;;;16.40;94.40;;;;;;5061700;28;20080;-51
2024/01/18 05:08:47;;;;;;;53.75;20.05;;;16.40;94.60;;;;;;5063613;28;20092;-54
2024/01/18 05:11:15;;;;;;;67.97;21.75;;;16.30;94.90;;;;;;5064193;28;20160;-51
2024/01/18 05:13:44;;;;;;;65.20;22.50;;;16.40;95.40;;;;;;5047253;28;20082;-56
2024/01/18 05:16:14;;;;;;;72.10;20.50;;;16.40;95.80;;;;;;5045905;28;20108;-46
2024/01/18 05:18:41;;;;;;;56.78;21.05;;;16.40;95.90;;;;;;5029578;28;20492;-49
2024/01/18 05:21:07;;;;;;;72.63;25.98;;;16.30;96.30;;;;;;5044142;28;20077;-52
2024/01/18 05:23:37;;;;;;;81.57;25.88;;;16.30;96.90;;;;;;5049883;28;20073;-56
2024/01/18 05:26:05;;;;;;;65.57;24.65;;;16.30;97.30;;;;;;5048080;28;20092;-52
2024/01/18 05:28:37;;;;;;;64.95;23.65;;;16.30;97.40;;;;;;5062976;28;20094;-46
2024/01/18 05:31:04;;;;;;;68.35;23.05;;;16.30;97.70;;;;;;5042676;28;20074;-49
2024/01/18 05:33:31;;;;;;;71.47;23.23;;;16.30;97.90;;;;;;5047991;28;20160;-54
2024/01/18 05:35:58;;;;;;;63.65;20.88;;;16.20;98.20;;;;;;5048714;28;20105;-51
2024/01/18 05:38:25;;;;;;;60.78;20.67;;;16.20;98.40;;;;;;5044110;28;20077;-49
2024/01/18 05:40:52;;;;;;;57.15;18.45;;;16.20;98.60;;;;;;5050981;28;20139;-49
2024/01/18 05:43:19;;;;;;;59.15;18.88;;;16.20;99.20;;;;;;5038646;28;20088;-50
2024/01/18 05:45:46;;;;;;;64.38;18.88;;;16.20;99.40;;;;;;5041448;28;20088;-47
2024/01/18 05:48:13;;;;;;;66.78;20.58;;;16.20;99.70;;;;;;5038929;28;20117;-51
2024/01/18 05:50:40;;;;;;;71.35;21.40;;;16.10;99.80;;;;;;5050998;28;20089;-50
2024/01/18 05:53:06;;;;;;;69.03;25.40;;;16.10;99.90;;;;;;5043264;28;20138;-49
2024/01/18 05:55:35;;;;;;;74.00;29.80;;;16.00;99.90;;;;;;5047034;28;20181;-50
2024/01/18 05:58:02;;;;;;;71.43;29.25;;;16.00;99.90;;;;;;5033329;28;20540;-49
2024/01/18 06:00:30;;;;;;;62.08;25.20;;;15.90;99.90;;;;;;5051431;28;20089;-51
2024/01/18 06:02:58;;;;;;;67.30;23.38;;;15.90;99.90;;;;;;5046670;28;20066;-50
2024/01/18 06:05:26;;;;;;;43.30;18.13;;;15.80;99.90;;;;;;5056206;28;20607;-48
2024/01/18 06:07:53;;;;;;;48.08;17.17;;;15.80;99.90;;;;;;5060600;28;20115;-49
2024/01/18 06:10:21;;;;;;;55.83;18.05;;;15.70;99.90;;;;;;5052202;28;20080;-53
2024/01/18 06:12:48;;;;;;;41.85;17.83;;;15.70;99.90;;;;;;5040511;28;20076;-53
2024/01/18 06:15:14;;;;;;;45.70;15.02;;;15.70;99.90;;;;;;5054563;28;20109;-50
2024/01/18 06:17:41;;;;;;;30.17;10.57;;;15.80;99.90;;;;;;5055609;28;20165;-48
2024/01/18 06:20:09;;;;;;;29.50;10.95;;;16.20;99.90;;;;;;5055101;28;20595;-46
2024/01/18 06:22:36;;;;;;;39.40;11.98;;;16.40;99.80;;;;;;5053910;28;20108;-50
2024/01/18 06:25:03;;;;;;;35.22;13.43;;;16.50;99.40;;;;;;5038983;28;20069;-54
2024/01/18 06:27:31;;;;;;;39.95;13.95;;;16.50;99.30;;;;;;5037334;28;20131;-53
2024/01/18 06:29:58;;;;;;;54.85;15.85;;;16.40;99.50;;;;;;5064234;28;20074;-50
2024/01/18 06:32:25;;;;;;;68.32;22.77;;;16.30;99.70;;;;;;5057942;28;20164;-48
2024/01/18 06:34:52;;;;;;;66.03;23.02;;;16.20;99.90;;;;;;5041180;28;20085;-47
2024/01/18 06:37:18;;;;;;;61.58;23.20;;;15.90;99.90;;;;;;5055990;28;20073;-48
2024/01/18 06:39:46;;;;;;;54.05;19.58;;;15.70;99.90;;;;;;5049431;28;20123;-50
2024/01/18 06:42:13;;;;;;;48.65;18.52;;;15.60;99.90;;;;;;5045347;28;20164;-56
2024/01/18 06:44:43;;;;;;;45.75;17.02;;;15.60;99.90;;;;;;5045190;28;20755;-49
2024/01/18 06:47:10;;;;;;;41.08;17.25;;;15.50;99.90;;;;;;5040141;28;20125;-45
2024/01/18 06:49:37;;;;;;;38.60;16.63;;;15.50;99.90;;;;;;5039763;28;20097;-50
2024/01/18 06:52:05;;;;;;;39.53;15.05;;;15.50;99.90;;;;;;5043192;28;20073;-50
2024/01/18 06:54:33;;;;;;;42.10;15.30;;;15.40;99.90;;;;;;5040934;28;20135;-57
2024/01/18 06:57:00;;;;;;;51.70;17.63;;;15.30;99.90;;;;;;5038181;28;20108;-49
2024/01/18 06:59:27;;;;;;;45.75;16.52;;;15.30;99.90;;;;;;5043442;28;20101;-52
2024/01/18 07:01:53;;;;;;;45.67;16.35;;;15.30;99.90;;;;;;5039069;28;20080;-52
2024/01/18 07:04:20;;;;;;;43.17;16.65;;;15.20;99.90;;;;;;5040366;28;20082;-52
2024/01/18 07:06:46;;;;;;;43.03;17.15;;;15.10;99.90;;;;;;5036633;28;20093;-52
2024/01/18 07:09:13;;;;;;;47.10;17.05;;;15.10;99.90;;;;;;5034601;28;20085;-52
2024/01/18 07:11:40;;;;;;;44.20;17.25;;;15.10;99.90;;;;;;5042202;28;20077;-49
2024/01/18 07:14:07;;;;;;;70.97;29.10;;;15.10;99.90;;;;;;5036480;28;20074;-49
2024/01/18 07:16:34;;;;;;;46.83;17.95;;;15.20;99.90;;;;;;5035542;28;20122;-53
2024/01/18 07:19:01;;;;;;;42.47;17.27;;;15.10;99.90;;;;;;5037004;28;20128;-47
2024/01/18 07:21:27;;;;;;;52.33;18.70;;;15.00;99.90;;;;;;5021210;28;20078;-50
2024/01/18 07:23:56;;;;;;;40.85;17.45;;;15.00;99.90;;;;;;5041676;28;20074;-47
2024/01/18 07:26:23;;;;;;;49.20;18.50;;;15.10;99.90;;;;;;5036337;28;20106;-51
2024/01/18 07:28:49;;;;;;;41.17;17.50;;;14.90;99.90;;;;;;5040391;28;20528;-50
2024/01/18 07:31:16;;;;;;;47.35;18.35;;;15.00;99.90;;;;;;5033339;28;20078;-48
2024/01/18 07:33:42;;;;;;;40.08;17.73;;;14.90;99.90;;;;;;5039153;28;20169;-51
2024/01/18 07:36:09;;;;;;;67.65;32.38;;;14.90;99.90;;;;;;5041776;28;20113;-52
2024/01/18 07:38:35;;;;;;;51.30;18.23;;;14.80;99.90;;;;;;5041905;28;20078;-52
2024/01/18 07:41:02;;;;;;;63.60;19.60;;;14.80;99.90;;;;;;5039260;28;20078;-51
2024/01/18 07:43:30;;;;;;;59.30;19.58;;;14.70;99.90;;;;;;5034013;28;20086;-57
2024/01/18 07:45:56;;;;;;;54.90;21.33;;;14.70;99.90;;;;;;5037606;28;20500;-52
2024/01/18 07:48:25;;;;;;;40.97;20.35;;;14.60;99.90;;;;;;5052271;28;20105;-52
2024/01/18 07:50:52;;;;;;;48.55;20.75;;;14.60;99.90;;;;;;5048147;28;20176;-48
2024/01/18 07:53:19;;;;;;;41.10;21.15;;;14.50;99.90;;;;;;5047165;28;20539;-49
2024/01/18 07:55:45;;;;;;;45.75;22.23;;;14.50;99.90;;;;;;5045576;28;20195;-54
2024/01/18 07:58:13;;;;;;;54.72;19.92;;;14.50;99.90;;;;;;5037254;28;20096;-51
2024/01/18 08:00:41;;;;;;;56.53;22.15;;;14.50;99.90;;;;;;5037698;28;20794;-53
2024/01/18 08:03:08;;;;;;;56.53;22.50;;;14.40;99.90;;;;;;5043848;28;20115;-52
2024/01/18 08:05:36;;;;;;;53.00;24.50;;;14.40;99.90;;;;;;5039570;28;20077;-53
2024/01/18 08:08:02;;;;;;;58.60;27.55;;;14.40;99.90;;;;;;5036413;28;20123;-51
2024/01/18 08:10:29;;;;;;;67.65;28.67;;;14.40;99.90;;;;;;5046096;28;20073;-47
2024/01/18 08:12:55;;;;;;;63.05;27.70;;;14.40;99.90;;;;;;5042976;28;20073;-54
2024/01/18 08:15:22;;;;;;;53.00;28.60;;;14.40;99.90;;;;;;5044459;28;20121;-49
2024/01/18 08:17:49;;;;;;;52.67;27.13;;;14.40;99.90;;;;;;5041871;28;20531;-51
2024/01/18 08:20:15;;;;;;;49.70;26.63;;;14.30;99.90;;;;;;5043875;28;20147;-48
2024/01/18 08:22:42;;;;;;;63.53;27.73;;;14.30;99.90;;;;;;5041189;28;20247;-48
2024/01/18 08:25:12;;;;;;;53.78;26.13;;;14.30;99.90;;;;;;5044185;28;20074;-51
2024/01/18 08:27:40;;;;;;;55.30;26.13;;;14.30;99.90;;;;;;5046599;28;20081;-53
2024/01/18 08:30:08;;;;;;;51.60;24.77;;;14.20;99.90;;;;;;5039649;28;20081;-55
2024/01/18 08:32:34;;;;;;;51.08;25.60;;;14.00;99.90;;;;;;5045768;28;20084;-55
2024/01/18 08:35:03;;;;;;;49.60;24.05;;;14.00;99.90;;;;;;5047254;28;20138;-49
2024/01/18 08:37:29;;;;;;;55.05;26.23;;;13.90;99.90;;;;;;5039180;28;20086;-52
2024/01/18 08:39:56;;;;;;;70.82;30.80;;;14.00;99.90;;;;;;5048118;28;20216;-52
2024/01/18 08:42:22;;;;;;;66.90;29.30;;;13.90;99.90;;;;;;5046574;28;20080;-49
2024/01/18 08:44:50;;;;;;;59.47;25.73;;;13.90;99.90;;;;;;5046993;28;20130;-48
2024/01/18 08:47:17;;;;;;;50.13;24.05;;;13.90;99.90;;;;;;5065200;28;20124;-48
2024/01/18 08:49:43;;;;;;;50.70;23.92;;;13.90;99.90;;;;;;5043722;28;20172;-49
2024/01/18 08:52:10;;;;;;;66.95;24.92;;;13.90;99.90;;;;;;5045256;28;20077;-52
2024/01/18 08:54:37;;;;;;;48.75;23.33;;;13.90;99.90;;;;;;5062608;28;20081;-52
2024/01/18 08:57:04;;;;;;;55.95;23.38;;;13.90;99.90;;;;;;5041839;28;20109;-50
2024/01/18 08:59:30;;;;;;;47.58;23.52;;;13.90;99.90;;;;;;5053774;28;20084;-47
2024/01/18 09:01:57;;;;;;;44.97;21.52;;;13.90;99.90;;;;;;5050883;28;20127;-46
2024/01/18 09:04:24;;;;;;;51.20;22.55;;;13.80;99.90;;;;;;5040866;28;20069;-46
2024/01/18 09:06:51;;;;;;;46.95;21.35;;;13.80;99.90;;;;;;5040189;28;20077;-57
2024/01/18 09:09:18;;;;;;;51.40;21.80;;;13.80;99.90;;;;;;5061252;28;20550;-48
2024/01/18 09:11:44;;;;;;;68.22;39.10;;;13.80;99.90;;;;;;5048293;28;20553;-52
2024/01/18 09:14:12;;;;;;;56.17;26.58;;;13.80;99.90;;;;;;5047705;28;20088;-48
2024/01/18 09:16:38;;;;;;;41.17;20.88;;;13.80;99.90;;;;;;5056102;28;20547;-51
2024/01/18 09:19:06;;;;;;;43.95;19.25;;;13.70;99.90;;;;;;5045686;28;21642;-55
2024/01/18 09:21:32;;;;;;;44.90;21.58;;;13.60;99.90;;;;;;5044456;28;20077;-48
2024/01/18 09:23:59;;;;;;;51.67;20.90;;;13.60;99.90;;;;;;5041428;28;20507;-52
2024/01/18 09:26:25;;;;;;;48.30;20.75;;;13.50;99.90;;;;;;5059106;28;20069;-51
2024/01/18 09:28:52;;;;;;;37.13;20.67;;;13.50;99.90;;;;;;5046585;28;20082;-53
2024/01/18 09:31:21;;;;;;;39.65;19.83;;;13.50;99.90;;;;;;5042431;28;20151;-59
2024/01/18 09:33:47;;;;;;;34.47;19.63;;;13.50;99.90;;;;;;5048871;28;20084;-51
2024/01/18 09:36:14;;;;;;;39.60;21.75;;;13.50;99.90;;;;;;5052800;28;20108;-51
2024/01/18 09:38:40;;;;;;;43.80;21.55;;;13.40;99.90;;;;;;5049444;28;20070;-51
2024/01/18 09:41:08;;;;;;;44.55;20.45;;;13.30;99.90;;;;;;5043439;28;20682;-55
2024/01/18 09:43:37;;;;;;;46.95;20.80;;;13.30;99.90;;;;;;5046312;28;20073;-53
2024/01/18 09:46:07;;;;;;;35.78;20.23;;;13.40;99.90;;;;;;5043698;28;20533;-49
2024/01/18 09:48:37;;;;;;;41.78;19.95;;;13.30;99.90;;;;;;5040320;28;20204;-58
2024/01/18 09:51:06;;;;;;;37.28;20.38;;;13.30;99.90;;;;;;5029339;28;20089;-51
2024/01/18 09:53:39;;;;;;;41.53;20.45;;;13.20;99.90;;;;;;5046863;28;20099;-51
2024/01/18 09:56:20;;;;;;;38.90;18.00;;;13.20;99.90;;;;;;5038752;28;20155;-52
2024/01/18 09:58:46;;;;;;;32.55;17.88;;;13.00;99.90;;;;;;5063979;28;20096;-51
2024/01/18 10:01:20;;;;;;;33.10;17.80;;;13.00;99.90;;;;;;5059510;28;20081;-52
2024/01/18 10:03:51;;;;;;;45.10;18.42;;;13.10;99.90;;;;;;5022714;28;20108;-51
2024/01/18 10:06:18;;;;;;;29.33;17.65;;;13.10;99.90;;;;;;5046938;28;20085;-50
2024/01/18 10:08:50;;;;;;;38.80;18.25;;;13.10;99.90;;;;;;5058926;28;20087;-52
2024/01/18 10:11:16;;;;;;;41.92;20.27;;;13.00;99.90;;;;;;5041825;28;20177;-47
2024/01/18 10:13:54;;;;;;;43.78;17.65;;;12.90;99.90;;;;;;5061154;28;20077;-50
2024/01/18 10:16:37;;;;;;;33.95;17.95;;;12.80;99.90;;;;;;5053558;28;20123;-50
2024/01/18 10:19:16;;;;;;;39.15;18.40;;;12.90;99.90;;;;;;5047178;28;20184;-56
2024/01/18 10:21:46;;;;;;;33.53;18.23;;;12.90;99.90;;;;;;5057593;28;20443;-56
2024/01/18 10:24:14;;;;;;;36.72;16.75;;;12.90;99.90;;;;;;5055802;28;20119;-52
2024/01/18 10:26:41;;;;;;;38.75;19.38;;;12.90;99.90;;;;;;5048931;28;20125;-50
2024/01/18 10:29:11;;;;;;;42.38;20.83;;;12.80;99.90;;;;;;5044481;28;20078;-53
2024/01/18 10:31:41;;;;;;;45.25;19.40;;;12.80;99.90;;;;;;5042389;28;20089;-54
2024/01/18 10:34:08;;;;;;;48.30;19.65;;;12.70;99.90;;;;;;5044317;28;20073;-56
2024/01/18 10:36:36;;;;;;;33.42;19.77;;;12.80;99.90;;;;;;5042510;28;20096;-57
2024/01/18 10:39:16;;;;;;;42.22;20.65;;;12.80;99.90;;;;;;5037593;28;20174;-49
2024/01/18 10:41:43;;;;;;;49.50;22.58;;;12.80;99.90;;;;;;5050148;28;20135;-51
2024/01/18 10:44:10;;;;;;;38.42;21.52;;;12.60;99.90;;;;;;5045462;28;20101;-55
2024/01/18 10:46:37;;;;;;;39.50;22.20;;;12.60;99.90;;;;;;5041504;28;20080;-54
2024/01/18 10:49:05;;;;;;;40.80;20.27;;;12.60;99.90;;;;;;5050874;28;20196;-48
2024/01/18 10:51:32;;;;;;;36.03;20.77;;;12.50;99.90;;;;;;5044526;28;20127;-50
2024/01/18 10:54:00;;;;;;;38.10;22.30;;;12.60;99.90;;;;;;5036555;28;20164;-49
2024/01/18 10:56:27;;;;;;;41.88;20.58;;;12.60;99.90;;;;;;5057769;28;20105;-49
2024/01/18 10:58:54;;;;;;;40.35;20.92;;;12.60;99.90;;;;;;5038653;28;20104;-52
2024/01/18 11:01:21;;;;;;;33.60;20.08;;;12.50;99.90;;;;;;5041040;28;20172;-53
2024/01/18 11:03:48;;;;;;;43.58;22.40;;;12.50;99.90;;;;;;5042124;28;20105;-52
2024/01/18 11:06:17;;;;;;;43.58;22.42;;;12.50;99.90;;;;;;5040206;28;20447;-47
2024/01/18 11:08:45;;;;;;;45.17;21.00;;;12.50;99.90;;;;;;5043184;28;20081;-49
2024/01/18 11:11:12;;;;;;;40.42;20.92;;;12.40;99.90;;;;;;5038877;28;20088;-48
2024/01/18 11:13:39;;;;;;;42.55;23.67;;;12.40;99.90;;;;;;5025831;28;20073;-53
2024/01/18 11:16:06;;;;;;;46.38;24.98;;;12.30;99.90;;;;;;5044182;28;20597;-51
2024/01/18 11:18:35;;;;;;;37.88;22.27;;;12.30;99.90;;;;;;5043242;28;20077;-53
2024/01/18 11:21:09;;;;;;;39.13;22.35;;;12.30;99.90;;;;;;5025436;28;20073;-50
2024/01/18 11:23:38;;;;;;;37.50;22.90;;;12.10;99.90;;;;;;5043477;28;20073;-51
2024/01/18 11:26:17;;;;;;;44.22;24.90;;;12.10;99.90;;;;;;5038207;28;20106;-53
2024/01/18 11:28:44;;;;;;;50.92;25.13;;;12.10;99.90;;;;;;5040291;28;20073;-49
2024/01/18 11:31:11;;;;;;;44.83;25.27;;;12.10;99.90;;;;;;5042376;28;20073;-52
2024/01/18 11:33:38;;;;;;;42.30;24.75;;;12.20;99.90;;;;;;5042078;28;20113;-51
2024/01/18 11:36:10;;;;;;;57.42;27.33;;;12.10;99.90;;;;;;5047523;28;20105;-49
2024/01/18 11:38:45;;;;;;;47.13;24.98;;;12.00;99.90;;;;;;5059922;28;20088;-47
2024/01/18 11:41:23;;;;;;;49.67;24.08;;;12.00;99.90;;;;;;5045909;28;20089;-48
2024/01/18 11:44:02;;;;;;;50.90;27.00;;;12.00;99.90;;;;;;5055529;28;20547;-49
2024/01/18 11:46:39;;;;;;;46.97;24.58;;;11.90;99.90;;;;;;5049348;28;20069;-50
2024/01/18 11:49:06;;;;;;;51.53;25.48;;;11.90;99.90;;;;;;5061148;28;20926;-47
2024/01/18 11:51:33;;;;;;;47.33;25.13;;;11.80;99.90;;;;;;5058928;28;20077;-50
2024/01/18 11:54:01;;;;;;;53.97;27.23;;;11.80;99.90;;;;;;5046943;28;20634;-47
2024/01/18 11:56:28;;;;;;;47.42;28.67;;;11.90;99.90;;;;;;5049739;28;20107;-50
2024/01/18 11:58:58;;;;;;;51.13;28.98;;;11.90;99.90;;;;;;5046423;28;20081;-53
2024/01/18 12:01:26;;;;;;;54.47;30.90;;;11.80;99.90;;;;;;5049630;28;20099;-49
2024/01/18 12:03:53;;;;;;;56.55;32.25;;;11.80;99.90;;;;;;5049371;28;20069;-56
2024/01/18 12:06:21;;;;;;;52.70;32.80;;;11.80;99.90;;;;;;5058103;28;20157;-53
2024/01/18 12:08:47;;;;;;;57.00;33.33;;;11.90;99.90;;;;;;5052609;28;20535;-57
2024/01/18 12:11:14;;;;;;;63.85;34.60;;;11.90;99.90;;;;;;5040254;28;20077;-55
2024/01/18 12:13:41;;;;;;;59.92;34.72;;;11.90;99.90;;;;;;5054925;28;20547;-50
2024/01/18 12:16:08;;;;;;;58.67;35.67;;;11.80;99.90;;;;;;5054252;28;20109;-54
2024/01/18 12:18:43;;;;;;;66.32;37.85;;;11.70;99.90;;;;;;5050097;28;20069;-53
2024/01/18 12:21:11;;;;;;;62.42;37.60;;;11.80;99.90;;;;;;5042686;28;20077;-50
2024/01/18 12:23:38;;;;;;;64.68;38.35;;;11.90;99.90;;;;;;5051145;28;20083;-49
2024/01/18 12:26:04;;;;;;;71.55;40.08;;;11.90;99.90;;;;;;5044948;28;20081;-50
2024/01/18 12:28:31;;;;;;;62.75;37.63;;;11.90;99.90;;;;;;5051016;28;20070;-50
2024/01/18 12:31:03;;;;;;;71.53;39.40;;;12.00;99.90;;;;;;5045805;28;20166;-53
2024/01/18 12:33:34;;;;;;;68.25;37.60;;;11.90;99.90;;;;;;5044580;28;20184;-48